CheckWX is a tool to help pilots better visualize weather data.  It is not intended as a substitute for an official pre-flight weather briefing.

08:02:17 UTC

KWMC TAF
Winnemucca Municipal Airport
Winnemucca, Nevada, USA
KWMC 190520Z 1906/2006 05011KT P6SM SCT250 FM191800 06012G22KT P6SM FEW070 BKN250 FM192300 07020G30KT P6SM SCT070 BKN200

Mar-19@
06:00 UTC

Mar-19 @ 06:00 UTC

Mar-19@
18:00 UTC

Mar-19 @ 18:00 UTC

KWMC 190520Z 1906/2006 05011KT P6SM SCT250
Wind
  • 050° at 11 KTS
Cloud Levels
  • Scattered at 25,000' AGL

Mar-19@
18:00 UTC

Mar-19 @ 18:00 UTC

Mar-19@
23:00 UTC

Mar-19 @ 23:00 UTC

FM191800 06012G22KT P6SM FEW070 BKN250

From

From Standard forecast or significant change

Wind
  • 060° at 12 KTS
  • {Gusting to 22 KTS
Cloud Levels
  • Few at 7,000' AGL
  • Broken at 25,000' AGL

Mar-19@
23:00 UTC

Mar-19 @ 23:00 UTC

Mar-20@
06:00 UTC

Mar-20 @ 06:00 UTC

FM192300 07020G30KT P6SM SCT070 BKN200

From

From Standard forecast or significant change

Wind
  • 070° at 20 KTS
  • {Gusting to 30 KTS
Cloud Levels
  • Scattered at 7,000' AGL
  • Broken at 20,000' AGL